Time;durP1;ratioP1;P1;durP2;ratioP2;P2;SDS_P1;SDS_P2;PMS_P1;PMS_P2;Temp;Humidity;BMP_temperature;BMP_pressure;BME280_temperature;BME280_humidity;BME280_pressure;Samples;Min_cycle;Max_cycle;Signal;HPM_P1;HPM_P2
2021/07/25 00:02:25;;;;;;;52.35;25.42;;;18.60;99.90;;;;;;4873878;29;20041;-82
2021/07/25 00:04:52;;;;;;;30.55;20.33;;;18.60;99.90;;;;;;4869579;29;20531;-81
2021/07/25 00:07:18;;;;;;;15.98;14.35;;;18.60;99.90;;;;;;4870706;29;20175;-81
2021/07/25 00:09:43;;;;;;;24.75;20.20;;;18.60;99.90;;;;;;4861391;29;20179;-81
2021/07/25 00:12:11;;;;;;;20.60;18.40;;;18.60;99.90;;;;;;4861152;29;20055;-82
2021/07/25 00:14:37;;;;;;;24.02;19.48;;;18.60;99.90;;;;;;4891855;29;20044;-82
2021/07/25 00:17:03;;;;;;;20.10;18.00;;;18.50;99.90;;;;;;4863761;29;20127;-83
2021/07/25 00:19:31;;;;;;;26.85;20.10;;;18.50;99.90;;;;;;4874163;29;20566;-80
2021/07/25 00:21:59;;;;;;;;;;;18.50;99.90;;;;;;4862769;29;20052;-81
2021/07/25 00:24:31;;;;;;;52.55;25.30;;;18.50;99.90;;;;;;4873438;29;20370;-81
2021/07/25 00:26:59;;;;;;;17.27;15.50;;;18.40;99.90;;;;;;4892314;29;20070;-79
2021/07/25 00:29:25;;;;;;;20.40;18.20;;;18.40;99.90;;;;;;4907383;29;20036;-81
2021/07/25 00:31:51;;;;;;;53.70;23.48;;;18.40;99.90;;;;;;4876436;29;20456;-80
2021/07/25 00:34:17;;;;;;;48.22;22.73;;;18.50;99.90;;;;;;4876063;29;20044;-80
2021/07/25 00:36:44;;;;;;;25.98;21.13;;;18.40;99.90;;;;;;4907673;29;20092;-79
2021/07/25 00:39:10;;;;;;;24.10;20.20;;;18.50;99.90;;;;;;4843293;29;20059;-80
2021/07/25 00:41:37;;;;;;;35.13;21.80;;;18.50;99.90;;;;;;4886884;29;20117;-80
2021/07/25 00:44:06;;;;;;;29.30;23.85;;;18.50;99.90;;;;;;4883710;29;20068;-79
2021/07/25 00:46:32;;;;;;;33.42;22.98;;;18.40;99.90;;;;;;4890081;29;20502;-79
2021/07/25 00:49:00;;;;;;;20.60;16.50;;;18.50;99.90;;;;;;4886848;29;20037;-79
2021/07/25 00:51:27;;;;;;;54.58;25.38;;;18.50;99.90;;;;;;4860987;29;20062;-79
2021/07/25 00:53:55;;;;;;;25.13;20.90;;;18.40;99.90;;;;;;4858589;29;20051;-79
2021/07/25 00:56:21;;;;;;;34.60;23.40;;;18.40;99.90;;;;;;4872398;29;20111;-79
2021/07/25 00:58:47;;;;;;;21.08;18.85;;;18.50;99.90;;;;;;4907751;29;20071;-80
2021/07/25 01:01:21;;;;;;;23.38;20.88;;;18.50;99.90;;;;;;4859367;29;20452;-79
2021/07/25 01:04:12;;;;;;;26.80;19.17;;;18.50;99.90;;;;;;4905357;29;20782;-81
2021/07/25 01:06:41;;;;;;;;;;;18.50;99.90;;;;;;4893116;29;20048;-80
2021/07/25 01:09:20;;;;;;;28.10;18.52;;;18.40;99.90;;;;;;4905311;29;19969;-80
2021/07/25 01:11:51;;;;;;;28.42;21.33;;;18.40;99.90;;;;;;4877636;29;20104;-80
2021/07/25 01:14:21;;;;;;;22.38;18.70;;;18.40;99.90;;;;;;4893867;29;20131;-81
2021/07/25 01:16:47;;;;;;;;;;;18.40;99.90;;;;;;4894792;29;20040;-82
2021/07/25 01:19:13;;;;;;;18.25;14.90;;;18.40;99.90;;;;;;4894248;29;19923;-81
2021/07/25 01:21:39;;;;;;;17.42;14.32;;;18.40;99.90;;;;;;4910545;29;20048;-84
2021/07/25 01:24:05;;;;;;;14.93;13.23;;;18.40;99.90;;;;;;4877540;29;20574;-84
2021/07/25 01:26:34;;;;;;;24.63;17.10;;;18.40;99.90;;;;;;4890153;29;20055;-88
2021/07/25 01:29:04;;;;;;;22.27;16.13;;;18.40;99.90;;;;;;4893771;29;20608;-88
2021/07/25 01:31:41;;;;;;;15.98;14.30;;;18.30;99.90;;;;;;4894198;29;20047;-84
2021/07/25 01:34:09;;;;;;;22.88;16.67;;;18.30;99.90;;;;;;4897406;29;20575;-87
2021/07/25 01:36:38;;;;;;;25.17;17.08;;;18.30;99.90;;;;;;4880912;29;20054;-87
2021/07/25 01:39:05;;;;;;;24.17;17.50;;;18.30;99.90;;;;;;4914059;29;20048;-90
2021/07/25 01:41:31;;;;;;;27.45;17.48;;;18.30;99.90;;;;;;4896916;29;20384;-87
2021/07/25 01:43:57;;;;;;;18.15;15.80;;;18.20;99.90;;;;;;4880878;29;20044;-89
2021/07/25 01:46:23;;;;;;;28.13;17.98;;;18.20;99.90;;;;;;4879850;29;20040;-84
2021/07/25 01:48:49;;;;;;;18.70;15.23;;;18.20;99.90;;;;;;4878387;29;20045;-82
2021/07/25 01:51:15;;;;;;;20.08;16.50;;;18.20;99.90;;;;;;4862897;29;20107;-84
2021/07/25 01:53:42;;;;;;;18.27;16.33;;;18.20;99.90;;;;;;4910556;29;20052;-83
2021/07/25 01:56:07;;;;;;;24.13;17.48;;;18.10;99.90;;;;;;4871873;29;20342;-85
2021/07/25 01:58:33;;;;;;;20.52;16.88;;;18.10;99.90;;;;;;4865310;29;20040;-81
2021/07/25 02:00:59;;;;;;;24.73;17.70;;;18.10;99.90;;;;;;4893132;29;20381;-81
2021/07/25 02:03:28;;;;;;;23.27;16.42;;;18.10;99.90;;;;;;4881906;29;20044;-80
2021/07/25 02:05:54;;;;;;;20.05;17.45;;;18.10;99.90;;;;;;4913760;29;20142;-81
2021/07/25 02:08:20;;;;;;;26.67;19.05;;;18.10;99.90;;;;;;4875703;29;20551;-81
2021/07/25 02:10:48;;;;;;;51.95;21.50;;;18.10;99.90;;;;;;4915332;29;20112;-81
2021/07/25 02:13:16;;;;;;;21.65;18.77;;;18.10;99.90;;;;;;4885188;29;20044;-82
2021/07/25 02:15:46;;;;;;;19.73;17.73;;;18.10;99.90;;;;;;4912759;29;20075;-83
2021/07/25 02:18:12;;;;;;;18.33;16.45;;;18.10;99.90;;;;;;4870957;29;20736;-82
2021/07/25 02:20:41;;;;;;;21.92;18.95;;;18.00;99.90;;;;;;4890006;29;20447;-86
2021/07/25 02:23:10;;;;;;;29.55;19.35;;;17.90;99.90;;;;;;4895874;29;20480;-85
2021/07/25 02:25:38;;;;;;;17.20;15.38;;;18.00;99.90;;;;;;4910103;29;20044;-84
2021/07/25 02:28:08;;;;;;;51.83;21.05;;;18.00;99.90;;;;;;4911731;29;20062;-83
2021/07/25 02:30:37;;;;;;;45.95;22.40;;;18.00;99.90;;;;;;4898674;29;20044;-83
2021/07/25 02:33:04;;;;;;;20.88;16.75;;;18.00;99.90;;;;;;4899075;29;20487;-81
2021/07/25 02:35:31;;;;;;;79.47;24.90;;;18.00;99.90;;;;;;4907766;29;20562;-82
2021/07/25 02:37:57;;;;;;;55.47;24.40;;;18.00;99.90;;;;;;4898494;29;20066;-81
2021/07/25 02:40:24;;;;;;;18.98;14.80;;;17.90;99.90;;;;;;4895426;29;20123;-82
2021/07/25 02:42:50;;;;;;;15.95;13.50;;;17.90;99.90;;;;;;4918033;29;20059;-80
2021/07/25 02:45:16;;;;;;;14.30;12.48;;;17.90;99.90;;;;;;4902006;29;20044;-82
2021/07/25 02:47:42;;;;;;;14.70;11.38;;;17.90;99.90;;;;;;4879423;29;20143;-80
2021/07/25 02:50:12;;;;;;;12.55;11.25;;;17.80;99.90;;;;;;4908408;29;20134;-81
2021/07/25 02:52:38;;;;;;;12.83;11.47;;;17.80;99.90;;;;;;4867221;29;20096;-83
2021/07/25 02:55:05;;;;;;;22.35;13.63;;;17.70;99.90;;;;;;4892487;29;20044;-82
2021/07/25 02:57:31;;;;;;;34.25;15.38;;;17.60;99.90;;;;;;4888583;29;20443;-81
2021/07/25 02:59:57;;;;;;;13.82;12.25;;;17.60;99.90;;;;;;4879021;29;20033;-81
2021/07/25 03:02:23;;;;;;;14.07;12.10;;;17.60;99.90;;;;;;4884282;29;20043;-80
2021/07/25 03:04:50;;;;;;;13.40;9.63;;;17.60;99.90;;;;;;4878248;29;20040;-82
2021/07/25 03:07:16;;;;;;;18.38;14.05;;;17.50;99.90;;;;;;4900798;29;20044;-81
2021/07/25 03:09:42;;;;;;;20.00;12.77;;;17.60;99.90;;;;;;4877013;29;20078;-82
2021/07/25 03:12:11;;;;;;;14.43;12.30;;;17.50;99.90;;;;;;4877545;29;20048;-82
2021/07/25 03:14:37;;;;;;;13.55;11.38;;;17.50;99.90;;;;;;4879388;29;20394;-82
2021/07/25 03:17:03;;;;;;;14.50;10.38;;;17.50;99.90;;;;;;4876056;29;20040;-81
2021/07/25 03:19:29;;;;;;;31.15;14.82;;;17.50;99.90;;;;;;4873981;29;20051;-82
2021/07/25 03:21:55;;;;;;;37.70;15.50;;;17.50;99.90;;;;;;4872498;29;20135;-83
2021/07/25 03:24:20;;;;;;;13.32;10.52;;;17.50;99.90;;;;;;4848962;29;20132;-82
2021/07/25 03:26:46;;;;;;;42.38;14.73;;;17.50;99.90;;;;;;4875113;29;20549;-82
2021/07/25 03:29:12;;;;;;;31.85;13.88;;;17.50;99.90;;;;;;4876467;29;20067;-82
2021/07/25 03:31:39;;;;;;;27.90;13.90;;;17.50;99.90;;;;;;4879267;29;20495;-82
2021/07/25 03:34:05;;;;;;;13.48;10.80;;;17.50;99.90;;;;;;4884502;29;20040;-82
2021/07/25 03:36:31;;;;;;;18.15;12.90;;;17.50;99.90;;;;;;4903445;29;20040;-84
2021/07/25 03:38:57;;;;;;;28.85;14.45;;;17.50;99.90;;;;;;4860398;29;20079;-85
2021/07/25 03:41:24;;;;;;;13.98;11.30;;;17.50;99.90;;;;;;4876987;29;20060;-83
2021/07/25 03:43:50;;;;;;;11.57;10.30;;;17.50;99.90;;;;;;4895767;29;20040;-83
2021/07/25 03:46:21;;;;;;;10.60;9.52;;;17.60;99.90;;;;;;4900052;29;20508;-85
2021/07/25 03:48:47;;;;;;;12.07;10.43;;;17.60;99.90;;;;;;4884898;29;20044;-83
2021/07/25 03:51:13;;;;;;;10.45;9.35;;;17.60;99.90;;;;;;4888395;29;20044;-82
2021/07/25 03:53:39;;;;;;;10.60;9.50;;;17.60;99.90;;;;;;4878844;29;20119;-81
2021/07/25 03:56:05;;;;;;;14.98;10.93;;;17.60;99.90;;;;;;4892592;29;20380;-83
2021/07/25 03:58:34;;;;;;;13.05;10.77;;;17.60;99.90;;;;;;4888381;29;20068;-83
2021/07/25 04:01:01;;;;;;;15.52;12.00;;;17.60;99.90;;;;;;4890009;29;20039;-82
2021/07/25 04:03:27;;;;;;;14.60;11.90;;;17.60;99.90;;;;;;4880323;29;20048;-82
2021/07/25 04:05:53;;;;;;;15.52;13.35;;;17.60;99.90;;;;;;4880461;29;20121;-83
2021/07/25 04:08:18;;;;;;;18.48;14.95;;;17.60;99.90;;;;;;4893905;29;20044;-82
2021/07/25 04:10:45;;;;;;;19.55;15.82;;;17.60;99.90;;;;;;4888867;29;21375;-83
2021/07/25 04:13:11;;;;;;;20.35;15.13;;;17.70;99.90;;;;;;4891695;29;20051;-81
2021/07/25 04:15:42;;;;;;;25.48;17.73;;;17.70;99.90;;;;;;4894562;29;20072;-83
2021/07/25 04:18:08;;;;;;;20.63;15.75;;;17.70;99.90;;;;;;4891795;29;20044;-84
2021/07/25 04:20:35;;;;;;;20.95;16.63;;;17.70;99.90;;;;;;4885314;29;20551;-84
2021/07/25 04:23:02;;;;;;;20.73;16.10;;;17.70;99.90;;;;;;4894685;29;20123;-82
2021/07/25 04:25:29;;;;;;;21.08;15.77;;;17.70;99.90;;;;;;4870582;29;20491;-83
2021/07/25 04:28:00;;;;;;;24.30;16.70;;;17.70;99.90;;;;;;4906801;29;20043;-82
2021/07/25 04:30:32;;;;;;;23.08;16.38;;;17.70;99.90;;;;;;4854685;29;20107;-83
2021/07/25 04:33:01;;;;;;;23.55;18.17;;;17.70;99.90;;;;;;4886527;29;20047;-80
2021/07/25 04:35:28;;;;;;;25.27;18.90;;;17.70;99.90;;;;;;4892131;29;20078;-83
2021/07/25 04:37:57;;;;;;;24.33;20.23;;;17.70;99.90;;;;;;4852939;29;20052;-81
2021/07/25 04:40:24;;;;;;;22.42;19.65;;;17.70;99.90;;;;;;4900981;29;20060;-82
2021/07/25 04:42:54;;;;;;;22.30;19.08;;;17.80;99.90;;;;;;4906562;29;20039;-83
2021/07/25 04:45:49;;;;;;;26.60;21.33;;;17.80;99.90;;;;;;4898493;29;20555;-83
2021/07/25 04:48:44;;;;;;;24.38;19.75;;;17.80;99.90;;;;;;4867801;29;20051;-81
2021/07/25 04:51:11;;;;;;;21.77;18.27;;;17.90;99.90;;;;;;4854197;29;20057;-81
2021/07/25 04:53:42;;;;;;;;;;;17.90;99.90;;;;;;4889182;29;20048;-82
2021/07/25 04:56:13;;;;;;;26.30;20.35;;;17.90;99.90;;;;;;4900820;29;19923;-83
2021/07/25 04:58:43;;;;;;;25.35;21.02;;;17.90;99.90;;;;;;4893479;29;20040;-81
2021/07/25 05:01:14;;;;;;;25.90;21.25;;;17.90;99.90;;;;;;4909346;29;20055;-81
2021/07/25 05:03:41;;;;;;;26.40;21.80;;;18.00;99.90;;;;;;4879669;29;20052;-83
2021/07/25 05:06:13;;;;;;;29.25;23.17;;;18.00;99.90;;;;;;4893518;29;20050;-81
2021/07/25 05:08:39;;;;;;;27.73;23.83;;;18.10;99.90;;;;;;4902307;29;20063;-82
2021/07/25 05:11:16;;;;;;;30.25;24.27;;;18.10;99.90;;;;;;4877076;29;20571;-80
2021/07/25 05:13:49;;;;;;;32.45;25.13;;;18.10;99.90;;;;;;4897471;29;20044;-82
2021/07/25 05:16:36;;;;;;;28.85;24.33;;;18.20;99.90;;;;;;4900941;29;20078;-83
2021/07/25 05:19:31;;;;;;;30.13;23.70;;;18.20;99.90;;;;;;4877025;29;20075;-83
2021/07/25 05:22:12;;;;;;;33.60;25.23;;;18.30;99.90;;;;;;4908617;29;20072;-81
2021/07/25 05:24:43;;;;;;;31.33;24.67;;;18.30;99.90;;;;;;4914415;29;20050;-79
2021/07/25 05:27:20;;;;;;;27.98;23.95;;;18.40;99.90;;;;;;4897284;29;20067;-82
2021/07/25 05:29:48;;;;;;;35.47;26.30;;;18.40;99.90;;;;;;4916157;29;20063;-83
2021/07/25 05:32:15;;;;;;;31.17;23.77;;;18.50;99.90;;;;;;4896951;29;20047;-82
2021/07/25 05:34:41;;;;;;;29.67;24.30;;;18.40;99.90;;;;;;4859159;29;20041;-84
2021/07/25 05:37:07;;;;;;;31.42;26.38;;;18.40;99.90;;;;;;4914138;29;20092;-83
2021/07/25 05:39:33;;;;;;;30.38;25.88;;;18.50;99.90;;;;;;4881961;29;20040;-81
2021/07/25 05:41:59;;;;;;;34.63;26.60;;;18.50;99.90;;;;;;4896329;29;20059;-82
2021/07/25 05:44:27;;;;;;;41.63;31.00;;;18.50;99.90;;;;;;4917479;29;20515;-81
2021/07/25 05:46:53;;;;;;;36.15;28.17;;;18.50;99.90;;;;;;4888870;29;20126;-80
2021/07/25 05:49:20;;;;;;;38.72;29.83;;;18.50;99.90;;;;;;4895246;29;20063;-81
2021/07/25 05:51:46;;;;;;;39.60;29.48;;;18.50;99.90;;;;;;4907644;29;20137;-80
2021/07/25 05:54:12;;;;;;;35.30;29.20;;;18.60;99.90;;;;;;4910995;29;20139;-80
2021/07/25 05:56:41;;;;;;;36.42;29.60;;;18.60;99.90;;;;;;4872155;29;20044;-80
2021/07/25 05:59:10;;;;;;;34.03;29.00;;;18.60;99.90;;;;;;4873120;29;20088;-80
2021/07/25 06:01:40;;;;;;;44.63;33.67;;;18.60;99.90;;;;;;4883947;29;20097;-79
2021/07/25 06:04:06;;;;;;;43.38;31.98;;;18.70;99.90;;;;;;4885427;29;20048;-79
2021/07/25 06:06:33;;;;;;;43.50;33.40;;;18.70;99.90;;;;;;4902078;29;20148;-80
2021/07/25 06:08:59;;;;;;;38.95;31.75;;;18.70;99.90;;;;;;4860709;29;20076;-82
2021/07/25 06:11:25;;;;;;;36.25;29.35;;;18.80;99.90;;;;;;4890287;29;20048;-81
2021/07/25 06:13:51;;;;;;;33.17;28.55;;;18.80;99.90;;;;;;4897854;29;20047;-79
2021/07/25 06:16:17;;;;;;;33.83;27.65;;;18.80;99.90;;;;;;4908444;29;20145;-78
2021/07/25 06:18:47;;;;;;;37.10;29.83;;;18.90;99.90;;;;;;4873514;29;20127;-79
2021/07/25 06:21:14;;;;;;;35.92;29.02;;;18.90;99.90;;;;;;4881104;29;20055;-81
2021/07/25 06:23:48;;;;;;;34.85;28.10;;;18.90;99.90;;;;;;4860494;29;20056;-81
2021/07/25 06:26:17;;;;;;;28.65;25.45;;;19.00;99.90;;;;;;4858031;29;20116;-80
2021/07/25 06:28:45;;;;;;;29.05;24.60;;;19.00;99.90;;;;;;4898922;29;20074;-81
2021/07/25 06:31:13;;;;;;;28.42;24.52;;;19.00;99.90;;;;;;4857758;29;20571;-82
2021/07/25 06:33:42;;;;;;;29.42;24.25;;;19.00;99.90;;;;;;4894017;29;20040;-81
2021/07/25 06:36:10;;;;;;;27.65;23.90;;;19.00;99.90;;;;;;4868265;29;20060;-82
2021/07/25 06:38:37;;;;;;;27.45;23.50;;;19.10;99.90;;;;;;4894433;29;20052;-81
2021/07/25 06:41:10;;;;;;;29.55;24.13;;;19.00;99.90;;;;;;4890453;29;20419;-80
2021/07/25 06:43:36;;;;;;;27.02;23.65;;;19.00;99.90;;;;;;4864005;29;20064;-82
2021/07/25 06:46:03;;;;;;;27.35;23.05;;;19.00;99.90;;;;;;4874070;29;20080;-80
2021/07/25 06:48:32;;;;;;;25.55;22.67;;;19.00;99.90;;;;;;4889604;29;20077;-81
2021/07/25 06:51:00;;;;;;;26.50;23.63;;;19.00;99.90;;;;;;4902710;29;20071;-80
2021/07/25 06:53:28;;;;;;;28.42;24.10;;;19.00;99.90;;;;;;4899241;29;20051;-80
2021/07/25 06:55:56;;;;;;;26.40;22.88;;;19.10;99.90;;;;;;4891984;29;20040;-80
2021/07/25 06:58:22;;;;;;;29.85;24.65;;;19.20;99.90;;;;;;4892737;29;20044;-79
2021/07/25 07:00:48;;;;;;;26.90;22.48;;;19.30;99.90;;;;;;4893706;29;20491;-79
2021/07/25 07:03:18;;;;;;;25.90;22.92;;;19.50;99.90;;;;;;4909097;29;20044;-79
2021/07/25 07:05:44;;;;;;;;;;;19.60;99.90;;;;;;4892081;29;20056;-79
2021/07/25 07:08:10;;;;;;;28.02;24.88;;;19.60;99.90;;;;;;4911557;29;19923;-80
2021/07/25 07:10:38;;;;;;;28.05;25.02;;;19.60;99.90;;;;;;4859907;29;20083;-79
2021/07/25 07:13:07;;;;;;;31.13;27.65;;;19.70;99.90;;;;;;4915708;29;20059;-81
2021/07/25 07:15:33;;;;;;;32.55;28.55;;;19.70;99.90;;;;;;4892140;29;20040;-80
2021/07/25 07:18:00;;;;;;;31.77;27.73;;;19.70;99.90;;;;;;4876860;29;20512;-81
2021/07/25 07:20:29;;;;;;;33.65;28.20;;;19.80;99.90;;;;;;4897650;29;20607;-81
2021/07/25 07:23:05;;;;;;;31.52;28.27;;;19.90;99.90;;;;;;4851051;29;20055;-82
2021/07/25 07:25:52;;;;;;;35.65;29.88;;;19.90;99.90;;;;;;4894340;29;20713;-81
2021/07/25 07:28:21;;;;;;;33.58;29.55;;;20.00;99.90;;;;;;4878611;29;20100;-81
2021/07/25 07:30:47;;;;;;;37.50;31.80;;;20.00;99.90;;;;;;4892257;29;20048;-80
2021/07/25 07:33:18;;;;;;;38.15;32.50;;;20.00;99.90;;;;;;4891559;29;20096;-80
2021/07/25 07:35:44;;;;;;;38.33;32.22;;;20.00;99.90;;;;;;4895663;29;20040;-81
2021/07/25 07:38:12;;;;;;;39.42;34.15;;;20.10;99.90;;;;;;4874546;29;20438;-81
2021/07/25 07:40:39;;;;;;;44.05;36.33;;;20.10;99.90;;;;;;4908893;29;20056;-80
2021/07/25 07:43:07;;;;;;;43.72;38.13;;;20.20;99.90;;;;;;4898014;29;20048;-80
2021/07/25 07:45:35;;;;;;;44.03;36.38;;;20.20;99.90;;;;;;4896073;29;20052;-80
2021/07/25 07:48:01;;;;;;;45.53;39.75;;;20.30;99.90;;;;;;4906209;29;20104;-81
2021/07/25 07:50:27;;;;;;;43.72;39.00;;;20.50;99.90;;;;;;4894661;29;20051;-83
2021/07/25 07:52:53;;;;;;;41.45;36.97;;;20.70;99.90;;;;;;4893189;29;20051;-82
2021/07/25 07:55:19;;;;;;;46.10;37.92;;;20.80;99.90;;;;;;4892676;29;20048;-83
2021/07/25 07:57:45;;;;;;;43.63;38.17;;;20.90;99.90;;;;;;4898173;29;20519;-83
2021/07/25 08:00:12;;;;;;;43.88;38.90;;;20.90;99.90;;;;;;4892056;29;20040;-80
2021/07/25 08:02:39;;;;;;;44.08;39.35;;;20.90;99.90;;;;;;4905022;29;20044;-82
2021/07/25 08:05:05;;;;;;;44.55;37.58;;;20.90;99.90;;;;;;4889020;29;20477;-80
2021/07/25 08:07:32;;;;;;;39.03;34.53;;;21.00;99.90;;;;;;4908498;29;20111;-80
2021/07/25 08:09:58;;;;;;;40.67;36.30;;;21.00;99.90;;;;;;4892523;29;20549;-81
2021/07/25 08:12:24;;;;;;;42.33;37.28;;;21.10;99.90;;;;;;4896191;29;20434;-81
2021/07/25 08:14:50;;;;;;;44.80;40.13;;;21.10;99.90;;;;;;4883307;29;20391;-81
2021/07/25 08:17:16;;;;;;;47.88;42.78;;;21.20;99.90;;;;;;4904418;29;20048;-79
2021/07/25 08:19:45;;;;;;;47.95;41.92;;;21.40;99.90;;;;;;4909569;29;20088;-79
2021/07/25 08:22:11;;;;;;;46.20;39.05;;;21.50;99.90;;;;;;4880301;29;20051;-81
2021/07/25 08:24:41;;;;;;;46.67;41.58;;;21.50;99.90;;;;;;4890054;29;20411;-80
2021/07/25 08:27:09;;;;;;;46.13;41.03;;;21.40;99.90;;;;;;4911986;29;20098;-81
2021/07/25 08:29:36;;;;;;;41.05;35.72;;;21.60;99.90;;;;;;4912312;29;20048;-81
2021/07/25 08:32:04;;;;;;;40.40;36.10;;;21.70;99.90;;;;;;4855878;29;20114;-80
2021/07/25 08:34:29;;;;;;;40.25;36.05;;;21.70;99.50;;;;;;4896490;29;20051;-82
2021/07/25 08:36:56;;;;;;;41.05;36.65;;;21.70;99.40;;;;;;4897856;29;20096;-82
2021/07/25 08:39:22;;;;;;;36.35;32.55;;;21.70;99.40;;;;;;4889787;29;20096;-80
2021/07/25 08:41:47;;;;;;;37.03;33.10;;;21.90;99.20;;;;;;4861181;29;20099;-78
2021/07/25 08:44:13;;;;;;;33.70;30.17;;;22.10;99.20;;;;;;4910908;29;20487;-79
2021/07/25 08:46:40;;;;;;;30.65;27.52;;;22.30;99.40;;;;;;4902749;29;20049;-81
2021/07/25 08:49:15;;;;;;;33.30;27.98;;;22.50;98.20;;;;;;4877165;29;20064;-81
2021/07/25 08:51:50;;;;;;;32.15;28.90;;;22.50;97.40;;;;;;4913346;29;20082;-80
2021/07/25 08:54:18;;;;;;;32.40;29.02;;;22.70;97.80;;;;;;4895979;29;20066;-79
2021/07/25 08:56:48;;;;;;;32.88;29.38;;;22.70;97.40;;;;;;4911237;29;20044;-80
2021/07/25 08:59:16;;;;;;;34.15;30.63;;;22.80;97.30;;;;;;4900197;29;20448;-79
2021/07/25 09:01:43;;;;;;;41.05;36.88;;;22.90;96.90;;;;;;4920034;29;20067;-81
2021/07/25 09:04:10;;;;;;;38.17;34.13;;;23.00;96.30;;;;;;4886783;29;20127;-80
2021/07/25 09:06:47;;;;;;;41.70;37.60;;;23.00;96.20;;;;;;4846531;29;20128;-80
2021/07/25 09:09:14;;;;;;;42.08;37.72;;;23.00;95.30;;;;;;4902156;29;20046;-81
2021/07/25 09:11:40;;;;;;;41.92;37.85;;;23.00;96.10;;;;;;4893053;29;20048;-78
2021/07/25 09:14:08;;;;;;;42.30;38.00;;;22.90;95.70;;;;;;4899216;29;20040;-79
2021/07/25 09:16:37;;;;;;;45.13;40.38;;;22.70;96.00;;;;;;4904455;29;20044;-80
2021/07/25 09:19:04;;;;;;;44.97;40.30;;;22.60;96.50;;;;;;4917029;29;20058;-80
2021/07/25 09:21:36;;;;;;;45.92;40.53;;;22.50;97.00;;;;;;4918029;29;20040;-80
2021/07/25 09:24:20;;;;;;;48.13;42.92;;;22.40;97.00;;;;;;4906329;29;20051;-79
2021/07/25 09:27:05;;;;;;;48.17;43.05;;;22.30;97.20;;;;;;4911664;29;20044;-80
2021/07/25 09:29:36;;;;;;;51.20;45.90;;;22.40;97.50;;;;;;4897048;29;20036;-80
2021/07/25 09:32:17;;;;;;;50.30;45.08;;;22.60;97.40;;;;;;4880525;29;20094;-82
2021/07/25 09:34:44;;;;;;;49.20;44.17;;;22.80;97.30;;;;;;4919051;29;20078;-81
2021/07/25 09:37:21;;;;;;;48.45;43.45;;;22.90;96.60;;;;;;4912100;29;20400;-81
2021/07/25 09:39:54;;;;;;;45.15;40.75;;;22.80;96.00;;;;;;4878582;29;20043;-83
2021/07/25 09:42:28;;;;;;;42.33;37.90;;;22.80;95.90;;;;;;4917714;29;20104;-84
2021/07/25 09:44:57;;;;;;;44.60;40.30;;;23.00;95.80;;;;;;4898576;29;20493;-84
2021/07/25 09:47:41;;;;;;;41.05;36.95;;;23.20;95.30;;;;;;4893766;29;20048;-81
2021/07/25 09:50:08;;;;;;;47.08;40.55;;;23.30;94.20;;;;;;4900651;29;20535;-84
2021/07/25 09:52:39;;;;;;;44.67;40.20;;;23.40;94.10;;;;;;4886442;29;20103;-78
2021/07/25 09:55:08;;;;;;;40.30;36.20;;;23.40;93.80;;;;;;4912126;29;20040;-78
2021/07/25 09:57:36;;;;;;;39.22;35.35;;;23.40;94.40;;;;;;4910351;29;20040;-77
2021/07/25 10:00:10;;;;;;;40.63;36.50;;;23.30;94.40;;;;;;4894876;29;20051;-77
2021/07/25 10:02:45;;;;;;;42.55;38.25;;;23.20;94.00;;;;;;4907988;29;20495;-76
2021/07/25 10:05:13;;;;;;;39.67;35.78;;;23.10;93.70;;;;;;4899582;29;20048;-79
2021/07/25 10:07:40;;;;;;;37.30;33.72;;;23.10;94.40;;;;;;4911653;29;20040;-80
2021/07/25 10:10:07;;;;;;;38.22;33.08;;;23.10;94.70;;;;;;4894083;29;20052;-80
2021/07/25 10:12:35;;;;;;;42.97;38.63;;;23.20;94.50;;;;;;4909674;29;20068;-78
2021/07/25 10:15:04;;;;;;;42.60;38.10;;;23.30;94.30;;;;;;4895268;29;20032;-82
2021/07/25 10:17:34;;;;;;;40.30;36.35;;;23.30;94.30;;;;;;4900848;29;20531;-81
2021/07/25 10:20:03;;;;;;;39.17;35.33;;;23.40;94.20;;;;;;4894441;29;20530;-78
2021/07/25 10:22:31;;;;;;;40.13;36.08;;;23.60;94.90;;;;;;4872993;29;20075;-78
2021/07/25 10:24:59;;;;;;;38.42;34.63;;;23.90;94.50;;;;;;4900684;29;20040;-77
2021/07/25 10:27:25;;;;;;;37.63;33.80;;;24.10;93.90;;;;;;4897283;29;20406;-79
2021/07/25 10:29:58;;;;;;;37.67;34.03;;;24.20;93.40;;;;;;4909578;29;20046;-76
2021/07/25 10:32:29;;;;;;;39.30;35.50;;;24.20;93.00;;;;;;4890958;29;20048;-82
2021/07/25 10:34:56;;;;;;;38.08;34.30;;;24.30;93.50;;;;;;4912964;29;20040;-77
2021/07/25 10:37:24;;;;;;;38.85;34.95;;;24.20;93.10;;;;;;4904319;29;20054;-79
2021/07/25 10:39:51;;;;;;;33.53;30.23;;;23.90;92.70;;;;;;4910526;29;20032;-83
2021/07/25 10:42:24;;;;;;;32.78;29.38;;;23.70;93.60;;;;;;4885098;29;20056;-83
2021/07/25 10:44:50;;;;;;;31.65;28.25;;;23.70;93.60;;;;;;4911987;29;20037;-83
2021/07/25 10:47:27;;;;;;;32.67;29.45;;;23.70;93.30;;;;;;4903676;29;20064;-80
2021/07/25 10:49:58;;;;;;;29.60;26.52;;;23.60;93.10;;;;;;4885148;29;20075;-85
2021/07/25 10:52:25;;;;;;;31.17;27.98;;;23.40;93.10;;;;;;4893880;29;20119;-84
2021/07/25 10:54:51;;;;;;;31.63;28.40;;;23.20;93.10;;;;;;4888548;29;20096;-84
2021/07/25 10:57:18;;;;;;;34.83;31.35;;;23.10;93.40;;;;;;4881272;29;20064;-81
2021/07/25 10:59:47;;;;;;;33.55;29.98;;;23.00;93.60;;;;;;4874626;29;20049;-82
2021/07/25 11:02:22;;;;;;;31.57;28.30;;;22.80;94.10;;;;;;4905631;29;20044;-82
2021/07/25 11:04:51;;;;;;;33.75;30.30;;;22.70;94.30;;;;;;4911494;29;20131;-83
2021/07/25 11:07:22;;;;;;;34.97;31.50;;;22.60;95.10;;;;;;4902668;29;20044;-83
2021/07/25 11:10:02;;;;;;;36.88;33.40;;;22.50;95.50;;;;;;4909111;29;20146;-82
2021/07/25 11:13:00;;;;;;;35.75;32.17;;;22.50;95.80;;;;;;4876015;29;20086;-82
2021/07/25 11:15:32;;;;;;;35.63;32.13;;;22.40;96.20;;;;;;4888140;29;20045;-84
2021/07/25 11:18:05;;;;;;;36.60;33.10;;;22.30;96.00;;;;;;4892735;29;20382;-81
2021/07/25 11:20:35;;;;;;;36.90;33.40;;;22.30;96.30;;;;;;4876616;29;20048;-80
2021/07/25 11:23:09;;;;;;;38.78;35.05;;;22.20;96.50;;;;;;4901916;29;20096;-82
2021/07/25 11:25:36;;;;;;;38.83;34.92;;;22.10;96.70;;;;;;4903982;29;20040;-82
2021/07/25 11:28:09;;;;;;;38.75;34.92;;;22.00;97.30;;;;;;4892080;29;20044;-83
2021/07/25 11:30:54;;;;;;;38.55;34.55;;;22.00;97.60;;;;;;4906336;29;20418;-82
2021/07/25 11:33:44;;;;;;;35.42;31.83;;;22.00;98.00;;;;;;4904437;29;20522;-82
2021/07/25 11:36:11;;;;;;;;;;;21.90;98.10;;;;;;4892409;29;20482;-81
2021/07/25 11:38:38;;;;;;;38.55;34.83;;;21.90;98.20;;;;;;4916684;29;19927;-82
2021/07/25 11:41:05;;;;;;;38.15;34.53;;;22.00;98.40;;;;;;4911443;29;20049;-81
2021/07/25 11:43:54;;;;;;;41.10;37.13;;;22.10;98.50;;;;;;4873658;29;20037;-83
2021/07/25 11:46:28;;;;;;;36.85;33.08;;;22.30;98.50;;;;;;4908206;29;20052;-82
2021/07/25 11:49:17;;;;;;;34.08;30.70;;;22.30;97.80;;;;;;4909486;29;20029;-81
2021/07/25 11:51:45;;;;;;;36.40;33.13;;;22.30;97.70;;;;;;4913642;29;20044;-81
2021/07/25 11:54:33;;;;;;;38.88;35.15;;;22.40;97.70;;;;;;4894900;29;20044;-82
2021/07/25 11:57:14;;;;;;;34.42;31.08;;;22.40;97.80;;;;;;4884635;29;20208;-81
2021/07/25 11:59:47;;;;;;;33.92;30.83;;;22.50;97.70;;;;;;4895447;29;20194;-81
2021/07/25 12:02:20;;;;;;;35.38;32.03;;;22.50;97.70;;;;;;4896401;29;20099;-81
2021/07/25 12:04:46;;;;;;;31.50;28.50;;;22.50;97.60;;;;;;4880890;29;20073;-81
2021/07/25 12:07:17;;;;;;;37.20;33.75;;;22.60;97.60;;;;;;4904919;29;20452;-83
2021/07/25 12:09:48;;;;;;;35.85;32.25;;;22.60;97.30;;;;;;4890982;29;20550;-81
2021/07/25 12:12:17;;;;;;;32.90;29.73;;;22.60;97.10;;;;;;4894525;29;20052;-80
2021/07/25 12:15:00;;;;;;;35.22;31.92;;;22.60;96.70;;;;;;4892132;29;20491;-81
2021/07/25 12:17:55;;;;;;;34.33;31.02;;;22.60;96.00;;;;;;4891167;29;20539;-81
2021/07/25 12:20:41;;;;;;;35.63;32.13;;;22.70;95.90;;;;;;4877304;29;20044;-83
2021/07/25 12:23:08;;;;;;;32.42;29.23;;;22.80;96.40;;;;;;4876295;29;20062;-81
2021/07/25 12:25:37;;;;;;;30.33;27.35;;;22.80;96.00;;;;;;4918381;29;20044;-81
2021/07/25 12:28:15;;;;;;;31.70;28.55;;;22.90;95.40;;;;;;4889951;29;20052;-82
2021/07/25 12:30:46;;;;;;;27.58;24.98;;;23.00;95.50;;;;;;4892074;29;20040;-80
2021/07/25 12:33:13;;;;;;;26.35;23.80;;;23.00;95.00;;;;;;4899798;29;20139;-83
2021/07/25 12:35:39;;;;;;;26.30;23.70;;;23.10;95.10;;;;;;4908828;29;20063;-81
2021/07/25 12:38:13;;;;;;;25.98;23.48;;;23.10;94.80;;;;;;4880297;29;20065;-76
2021/07/25 12:40:51;;;;;;;23.85;21.38;;;23.20;94.80;;;;;;4892519;29;20839;-75